Terminal Aerodrome Forecast
Issued by NWS Twin Cities, MN

Home | Current Version | Previous Version | Text Only | Print | Product List | Glossary Off
Versions: 1 2 3 4 5 6 7 8 9 10 11 12 13

000
FTUS43 KMPX 290500
TAFSTC
TAF
KSTC 290527Z 2906/3006 31003KT P6SM FEW080
     FM291500 32010KT P6SM SCT050
     FM300100 31003KT P6SM SKC=

USA.gov is the U.S. government's official web portal to all federal, state and local government web resources and services.